首页
METAR-TAF:

METAR-TAF

机场 :

里士满, 澳大利亚

纬度: 33-36S, 经度: 150-47E, 海拔: 21米

当前天气观测

该预报发布于15分钟前的12:00 UTC
静风
温度 17°C
湿度 94%
气压 1024 hPa
能见度10公里或以上
多云层高于11000英尺

METAR: YSRI 091200Z AUTO 00000KT 9999 // BKN110 17/16 Q1024 RF00.0/000.0

时间: 22:15 (12:15 UTC)

预报

该预报发布于1小时和9分钟前的11:06 UTC
预报有效从09日的 12点(UTC)到 10日的 12点(UTC)
风速3节,风向多变
能见度10公里或以上
散云层高于1000英尺
多云层高于2000英尺
小阵雨
从 09日的 1800点(UTC)
风速8节,风向北转东北
能見度: 4000
散云层高于1000英尺
多云层高于9000英尺
多云层高于1000英尺
小阵雨, 阵雨

TAF: YSRI 091106Z 0912/1012 VRB03KT 9999 -SHRA SCT010 BKN020 FM091800 02008KT 9999 -SHRA SCT010 BKN090 INTER 0918/1008 4000 SHRA BKN010

超过4000个机场的气象观测和天气预报(METAR&TAF报告)。

可查询的气象台以黄色和红色小点在地图上表示。

将鼠标移到小点上方,可查看气象台名称。

然后点击查看天气观测和预报。

如需切换地图:点击带黑十字的绿色按钮放大地图;点击带横线的绿色按钮缩小地图;或者点击绿色箭头查看邻近地区的地图。


METAR-TAF: